createdAt,value
2023-03-22T00:00:38.808Z,7.47
2023-03-22T00:01:43.334Z,7.18
2023-03-22T00:02:46.791Z,8.07
2023-03-22T00:03:51.733Z,7.28
2023-03-22T00:04:55.817Z,7.82
2023-03-22T00:05:59.915Z,8.32
2023-03-22T00:07:03.528Z,8.60
2023-03-22T00:08:07.409Z,8.57
2023-03-22T00:09:11.111Z,8.70
2023-03-22T00:10:13.481Z,8.98
2023-03-22T00:11:16.850Z,9.23
2023-03-22T00:12:19.847Z,9.10
2023-03-22T00:13:23.519Z,8.80
2023-03-22T00:14:26.953Z,8.63
2023-03-22T00:15:30.705Z,9.35
2023-03-22T00:16:33.774Z,8.45
2023-03-22T00:17:38.338Z,8.77
2023-03-22T00:18:41.385Z,8.90
2023-03-22T00:19:45.148Z,8.85
2023-03-22T00:20:48.560Z,6.85
2023-03-22T00:21:53.625Z,8.02
2023-03-22T00:22:56.490Z,7.20
2023-03-22T00:24:08.903Z,8.18
2023-03-22T00:25:11.551Z,7.55
2023-03-22T00:26:16.294Z,7.65
2023-03-22T00:27:19.321Z,7.50
2023-03-22T00:28:23.320Z,7.30
2023-03-22T00:29:27.665Z,7.23
2023-03-22T00:30:29.985Z,7.00
2023-03-22T00:31:33.340Z,7.75
2023-03-22T00:32:37.022Z,7.68
2023-03-22T00:33:40.836Z,7.40
2023-03-22T00:34:43.843Z,7.85
2023-03-22T00:35:50.524Z,7.00
2023-03-22T00:36:56.391Z,7.03
2023-03-22T00:38:06.134Z,7.10
2023-03-22T00:39:08.956Z,7.22
2023-03-22T00:40:14.544Z,7.57
2023-03-22T00:41:18.983Z,7.30
2023-03-22T00:42:22.645Z,8.68
2023-03-22T00:43:25.637Z,9.13
2023-03-22T00:44:29.163Z,8.10
2023-03-22T00:45:31.490Z,7.88
2023-03-22T00:46:34.888Z,6.90
2023-03-22T00:47:37.324Z,7.20
2023-03-22T00:48:41.486Z,7.80
2023-03-22T00:49:44.286Z,7.60
2023-03-22T00:50:47.787Z,7.57
2023-03-22T00:51:50.610Z,7.75
2023-03-22T00:52:55.718Z,7.65
2023-03-22T00:53:59.048Z,8.55
2023-03-22T00:55:01.362Z,6.78
2023-03-22T00:56:05.744Z,8.23
2023-03-22T00:57:08.363Z,8.57
2023-03-22T00:58:11.637Z,8.43
2023-03-22T00:59:17.264Z,7.00
2023-03-22T01:00:20.852Z,7.82
2023-03-22T01:01:23.982Z,6.63
2023-03-22T01:02:29.768Z,8.13
2023-03-22T01:03:33.418Z,7.63
2023-03-22T01:04:38.084Z,7.20
2023-03-22T01:05:40.329Z,8.00
2023-03-22T01:06:43.686Z,8.13
2023-03-22T01:07:46.109Z,6.75
2023-03-22T01:08:51.172Z,8.20
2023-03-22T01:09:54.309Z,8.70
2023-03-22T01:10:57.622Z,8.32
2023-03-22T01:12:02.274Z,7.70
2023-03-22T01:13:05.869Z,8.95
2023-03-22T01:19:32.652Z,8.90
2023-03-22T01:20:36.038Z,8.95
2023-03-22T01:21:39.770Z,8.70
2023-03-22T01:22:42.071Z,8.75
2023-03-22T01:23:45.822Z,8.13
2023-03-22T01:24:50.781Z,9.05
2023-03-22T01:25:54.415Z,8.97
2023-03-22T01:26:57.540Z,8.43
2023-03-22T01:28:02.749Z,8.32
2023-03-22T01:29:05.860Z,7.47
2023-03-22T01:30:10.614Z,8.32
2023-03-22T01:31:13.282Z,8.27
2023-03-22T01:32:16.723Z,6.63
2023-03-22T01:33:19.512Z,7.47
2023-03-22T01:34:23.663Z,6.93
2023-03-22T01:35:26.522Z,7.85
2023-03-22T01:36:30.124Z,7.70
2023-03-22T01:37:32.810Z,9.15
2023-03-22T01:38:37.025Z,6.80
2023-03-22T01:39:39.780Z,7.38
2023-03-22T01:40:44.543Z,7.70
2023-03-22T01:41:46.950Z,6.82
2023-03-22T01:42:50.793Z,7.63
2023-03-22T01:44:09.353Z,7.32
2023-03-22T01:45:36.668Z,7.20
2023-03-22T01:46:40.587Z,7.43
2023-03-22T01:47:48.366Z,7.83
2023-03-22T01:48:53.416Z,7.53
2023-03-22T01:49:57.457Z,7.88
2023-03-22T01:51:08.905Z,7.45
2023-03-22T01:52:15.201Z,5.40
2023-03-22T01:53:23.812Z,7.15
2023-03-22T01:54:31.075Z,7.22
2023-03-22T01:55:35.135Z,7.60
2023-03-22T01:56:41.985Z,7.15
2023-03-22T01:57:46.147Z,7.03
2023-03-22T01:58:50.541Z,7.37
2023-03-22T01:59:53.801Z,6.72
2023-03-22T02:00:56.701Z,6.88
2023-03-22T02:02:02.977Z,6.78
2023-03-22T02:03:07.260Z,7.80
2023-03-22T02:04:13.747Z,7.38
2023-03-22T02:05:16.211Z,7.05
2023-03-22T02:06:21.486Z,6.47
2023-03-22T02:07:27.371Z,7.10
2023-03-22T02:08:33.596Z,6.60
2023-03-22T02:09:39.782Z,7.93
2023-03-22T02:10:43.619Z,7.10
2023-03-22T02:11:54.901Z,5.95
2023-03-22T02:13:21.303Z,7.38
2023-03-22T02:14:39.623Z,7.38
2023-03-22T02:15:49.599Z,7.72
2023-03-22T02:17:05.585Z,6.35
2023-03-22T02:18:23.042Z,9.60
2023-03-22T02:20:11.244Z,7.25
2023-03-22T02:21:46.537Z,7.60
2023-03-22T02:23:13.557Z,8.23
2023-03-22T02:25:10.916Z,7.22
2023-03-22T02:26:59.734Z,8.65
2023-03-22T02:28:19.325Z,8.18
2023-03-22T02:29:34.964Z,7.57
2023-03-22T02:31:02.015Z,7.25
2023-03-22T02:32:44.129Z,6.93
2023-03-22T02:33:59.936Z,7.78
2023-03-22T02:35:22.540Z,6.88
2023-03-22T02:36:39.825Z,6.40
2023-03-22T02:38:21.299Z,8.07
2023-03-22T02:39:34.637Z,7.53
2023-03-22T02:40:46.850Z,7.68
2023-03-22T02:42:07.482Z,7.75
2023-03-22T02:43:16.786Z,7.15
2023-03-22T02:44:28.394Z,9.05
2023-03-22T02:45:36.194Z,7.95
2023-03-22T02:46:43.823Z,7.25
2023-03-22T02:47:57.647Z,7.90
2023-03-22T02:49:09.696Z,8.52
2023-03-22T02:50:18.925Z,7.67
2023-03-22T02:51:26.508Z,7.55
2023-03-22T02:52:39.413Z,6.82
2023-03-22T02:53:47.960Z,8.15
2023-03-22T02:55:01.690Z,8.15
2023-03-22T02:56:07.799Z,9.10
2023-03-22T02:57:16.558Z,7.15
2023-03-22T02:58:22.190Z,8.00
2023-03-22T02:59:28.712Z,7.50
2023-03-22T03:00:33.710Z,7.28
2023-03-22T03:01:41.950Z,7.97
2023-03-22T03:02:49.197Z,8.23
2023-03-22T03:03:57.079Z,7.25
2023-03-22T03:05:00.000Z,7.57
2023-03-22T03:06:10.106Z,8.75
2023-03-22T03:07:16.717Z,8.05
2023-03-22T03:08:22.322Z,7.30
2023-03-22T03:09:25.603Z,7.88
2023-03-22T03:10:31.036Z,6.80
2023-03-22T03:11:33.928Z,7.53
2023-03-22T03:12:37.627Z,7.37
2023-03-22T03:13:39.891Z,7.28
2023-03-22T03:14:43.503Z,7.20
2023-03-22T03:15:52.683Z,7.25
2023-03-22T03:17:19.667Z,7.25
2023-03-22T03:18:46.567Z,7.72
2023-03-22T03:20:01.111Z,8.25
2023-03-22T03:21:10.211Z,7.05
2023-03-22T03:22:37.567Z,7.50
2023-03-22T03:23:49.646Z,6.85
2023-03-22T03:25:00.769Z,6.30
2023-03-22T03:26:13.274Z,6.75
2023-03-22T03:27:18.086Z,7.45
2023-03-22T03:28:38.507Z,7.55
2023-03-22T03:29:45.636Z,7.32
2023-03-22T03:30:55.081Z,7.53
2023-03-22T03:32:05.024Z,6.18
2023-03-22T03:33:11.250Z,6.72
2023-03-22T03:34:19.679Z,6.85
2023-03-22T03:35:26.134Z,6.75
2023-03-22T03:36:31.107Z,7.30
2023-03-22T03:37:40.022Z,7.80
2023-03-22T03:38:47.308Z,5.82
2023-03-22T03:39:56.474Z,6.20
2023-03-22T03:41:03.284Z,6.53
2023-03-22T03:42:12.796Z,6.72
2023-03-22T03:43:16.280Z,6.45
2023-03-22T03:44:20.463Z,6.07
2023-03-22T03:45:25.242Z,6.53
2023-03-22T03:46:29.429Z,6.68
2023-03-22T03:47:32.409Z,6.67
2023-03-22T03:48:38.876Z,6.78
2023-03-22T03:49:42.236Z,6.28
2023-03-22T03:50:45.859Z,6.50
2023-03-22T03:51:50.878Z,6.93
2023-03-22T03:52:56.540Z,6.35
2023-03-22T03:53:58.981Z,6.32
2023-03-22T03:55:02.583Z,6.00
2023-03-22T03:56:06.026Z,7.47
2023-03-22T03:57:10.821Z,6.80
2023-03-22T03:58:13.118Z,6.63
2023-03-22T03:59:17.149Z,7.28
2023-03-22T04:00:20.340Z,6.65
2023-03-22T04:01:24.294Z,6.10
2023-03-22T04:02:26.732Z,6.47
2023-03-22T04:03:30.146Z,7.00
2023-03-22T04:04:34.890Z,6.57
2023-03-22T04:05:38.784Z,6.72
2023-03-22T04:06:41.836Z,6.43
2023-03-22T04:07:45.327Z,6.40
2023-03-22T04:08:53.575Z,7.17
2023-03-22T04:09:56.963Z,6.82
2023-03-22T04:10:59.632Z,6.93
2023-03-22T04:12:03.725Z,6.13
2023-03-22T04:13:07.565Z,6.90
2023-03-22T04:14:11.291Z,6.60
2023-03-22T04:15:14.245Z,6.75
2023-03-22T04:16:17.941Z,6.50
2023-03-22T04:17:20.819Z,6.68
2023-03-22T04:18:24.548Z,6.55
2023-03-22T04:19:27.410Z,7.20
2023-03-22T04:20:31.738Z,6.95
2023-03-22T04:21:34.105Z,6.60
2023-03-22T04:22:38.505Z,6.40
2023-03-22T04:23:41.304Z,6.25
2023-03-22T04:24:50.221Z,7.32
2023-03-22T04:25:52.605Z,6.60
2023-03-22T04:26:56.016Z,6.80
2023-03-22T04:28:00.788Z,7.10
2023-03-22T04:29:06.714Z,6.45
2023-03-22T04:30:11.564Z,7.60
2023-03-22T04:31:14.973Z,7.55
2023-03-22T04:32:19.087Z,7.60
2023-03-22T04:33:23.200Z,7.47
2023-03-22T04:34:26.533Z,7.15
2023-03-22T04:35:29.958Z,7.22
2023-03-22T04:36:36.627Z,7.07
2023-03-22T04:37:39.925Z,7.25
2023-03-22T04:38:43.161Z,8.23
2023-03-22T04:39:47.246Z,7.43
2023-03-22T04:40:49.730Z,7.50
2023-03-22T04:41:53.402Z,8.00
2023-03-22T04:42:57.700Z,8.25
2023-03-22T04:44:03.201Z,7.28
2023-03-22T04:45:09.214Z,8.75
2023-03-22T04:46:12.950Z,8.70
2023-03-22T04:47:16.034Z,7.80
2023-03-22T04:48:22.345Z,9.02
2023-03-22T04:49:24.960Z,8.48
2023-03-22T04:50:29.058Z,8.65
2023-03-22T04:51:32.353Z,7.50
2023-03-22T04:52:36.075Z,8.00
2023-03-22T04:53:39.589Z,7.68
2023-03-22T04:54:43.024Z,8.18
2023-03-22T04:55:45.750Z,8.40
2023-03-22T04:56:49.903Z,7.60
2023-03-22T04:57:54.904Z,7.93
2023-03-22T04:58:58.664Z,7.90
2023-03-22T05:00:01.071Z,8.45
2023-03-22T05:01:06.863Z,7.95
2023-03-22T05:02:09.640Z,7.63
2023-03-22T05:03:13.494Z,7.32
2023-03-22T05:04:16.992Z,8.13
2023-03-22T05:05:20.864Z,9.20
2023-03-22T05:06:23.407Z,8.45
2023-03-22T05:07:27.431Z,8.13
2023-03-22T05:08:31.116Z,7.72
2023-03-22T05:09:35.073Z,8.70
2023-03-22T05:10:40.964Z,8.20
2023-03-22T05:11:44.977Z,8.23
2023-03-22T05:12:47.637Z,8.37
2023-03-22T05:13:51.080Z,8.10
2023-03-22T05:14:53.644Z,8.77
2023-03-22T05:15:57.179Z,7.63
2023-03-22T05:17:01.035Z,7.68
2023-03-22T05:18:04.929Z,7.97
2023-03-22T05:19:13.904Z,8.80
2023-03-22T05:20:17.277Z,8.80
2023-03-22T05:21:22.167Z,9.80
2023-03-22T05:22:25.690Z,7.53
2023-03-22T05:23:28.202Z,8.33
2023-03-22T05:24:32.486Z,8.15
2023-03-22T05:25:35.175Z,8.77
2023-03-22T05:26:42.462Z,8.65
2023-03-22T05:27:44.872Z,8.15
2023-03-22T05:28:48.667Z,8.10
2023-03-22T05:29:52.453Z,8.70
2023-03-22T05:30:57.260Z,7.88
2023-03-22T05:32:01.148Z,8.82
2023-03-22T05:33:06.165Z,8.65
2023-03-22T05:34:09.871Z,8.47
2023-03-22T05:35:13.206Z,9.55
2023-03-22T05:36:15.630Z,9.45
2023-03-22T05:37:21.273Z,7.57
2023-03-22T05:38:24.778Z,9.50
2023-03-22T05:39:28.071Z,9.50
2023-03-22T05:40:30.742Z,9.10
2023-03-22T05:41:36.421Z,9.50
2023-03-22T05:42:39.056Z,8.95
2023-03-22T05:43:43.050Z,9.23
2023-03-22T05:44:45.846Z,8.83
2023-03-22T05:45:49.588Z,8.60
2023-03-22T05:46:52.006Z,9.65
2023-03-22T05:47:56.875Z,10.10
2023-03-22T05:48:59.299Z,9.80
2023-03-22T05:50:02.674Z,9.82
2023-03-22T05:51:07.420Z,8.48
2023-03-22T05:52:11.109Z,9.10
2023-03-22T05:53:14.497Z,9.40
2023-03-22T05:54:16.811Z,9.77
2023-03-22T05:55:20.806Z,10.03
2023-03-22T05:56:24.676Z,9.13
2023-03-22T05:57:30.056Z,10.35
2023-03-22T05:58:34.083Z,10.27
2023-03-22T05:59:37.681Z,10.40
2023-03-22T06:00:40.514Z,9.35
2023-03-22T06:01:44.909Z,8.27
2023-03-22T06:02:48.672Z,9.57
2023-03-22T06:03:53.510Z,9.02
2023-03-22T06:04:56.060Z,9.57
2023-03-22T06:05:59.696Z,10.37
2023-03-22T06:07:02.145Z,9.65
2023-03-22T06:08:06.120Z,9.25
2023-03-22T06:09:16.941Z,8.82
2023-03-22T06:10:21.102Z,9.10
2023-03-22T06:11:24.368Z,9.82
2023-03-22T06:12:29.978Z,10.43
2023-03-22T06:13:32.476Z,9.00
2023-03-22T06:14:36.046Z,9.18
2023-03-22T06:15:38.541Z,7.47
2023-03-22T06:16:42.328Z,9.20
2023-03-22T06:17:44.595Z,8.00
2023-03-22T06:18:48.204Z,8.02
2023-03-22T06:19:53.245Z,8.80
2023-03-22T06:20:56.882Z,9.10
2023-03-22T06:21:59.682Z,8.07
2023-03-22T06:23:03.120Z,8.57
2023-03-22T06:24:06.479Z,7.20
2023-03-22T06:25:11.378Z,7.88
2023-03-22T06:26:13.641Z,8.90
2023-03-22T06:27:17.987Z,7.83
2023-03-22T06:28:20.313Z,9.98
2023-03-22T06:29:24.051Z,9.38
2023-03-22T06:30:26.662Z,10.05
2023-03-22T06:31:30.213Z,8.27
2023-03-22T06:32:32.412Z,8.85
2023-03-22T06:33:36.411Z,8.35
2023-03-22T06:34:38.711Z,8.90
2023-03-22T06:35:43.422Z,8.98
2023-03-22T06:36:45.786Z,9.90
2023-03-22T06:37:49.134Z,9.60
2023-03-22T06:38:52.671Z,8.82
2023-03-22T06:39:55.095Z,8.93
2023-03-22T06:40:58.604Z,10.30
2023-03-22T06:42:01.207Z,9.65
2023-03-22T06:43:06.967Z,10.13
2023-03-22T06:44:09.590Z,9.20
2023-03-22T06:45:16.621Z,7.45
2023-03-22T06:46:19.049Z,8.75
2023-03-22T06:47:22.466Z,8.20
2023-03-22T06:48:25.424Z,8.43
2023-03-22T06:49:28.963Z,9.77
2023-03-22T06:50:31.369Z,8.40
2023-03-22T06:51:36.268Z,9.63
2023-03-22T06:52:38.998Z,9.32
2023-03-22T06:53:42.962Z,9.55
2023-03-22T06:54:45.489Z,9.93
2023-03-22T06:55:49.051Z,9.10
2023-03-22T06:56:51.974Z,8.85
2023-03-22T06:57:55.614Z,9.82
2023-03-22T06:58:58.628Z,10.67
2023-03-22T07:00:02.111Z,9.35
2023-03-22T07:01:05.264Z,10.63
2023-03-22T07:02:11.896Z,8.90
2023-03-22T07:03:15.718Z,10.10
2023-03-22T07:04:20.256Z,10.32
2023-03-22T07:05:23.959Z,10.55
2023-03-22T07:06:26.446Z,10.57
2023-03-22T07:07:31.388Z,10.05
2023-03-22T07:08:34.621Z,11.02
2023-03-22T07:09:38.035Z,10.10
2023-03-22T07:10:40.626Z,10.80
2023-03-22T07:11:44.161Z,9.90
2023-03-22T07:12:47.532Z,10.48
2023-03-22T07:13:49.922Z,11.32
2023-03-22T07:14:53.402Z,10.82
2023-03-22T07:15:56.805Z,10.88
2023-03-22T07:17:00.385Z,9.07
2023-03-22T07:18:03.051Z,10.65
2023-03-22T07:19:07.060Z,11.02
2023-03-22T07:20:11.199Z,11.33
2023-03-22T07:21:13.468Z,10.55
2023-03-22T07:22:16.829Z,10.63
2023-03-22T07:23:22.273Z,11.00
2023-03-22T07:24:24.560Z,9.45
2023-03-22T07:25:27.941Z,10.20
2023-03-22T07:26:31.002Z,10.70
2023-03-22T07:27:35.374Z,11.07
2023-03-22T07:28:37.808Z,11.13
2023-03-22T07:29:41.975Z,9.85
2023-03-22T07:30:44.344Z,10.97
2023-03-22T07:31:48.150Z,12.05
2023-03-22T07:32:51.495Z,11.80
2023-03-22T07:33:53.985Z,11.05
2023-03-22T07:34:57.539Z,12.30
2023-03-22T07:36:00.065Z,11.82
2023-03-22T07:37:04.159Z,11.70
2023-03-22T07:38:06.808Z,11.73
2023-03-22T07:39:12.441Z,11.65
2023-03-22T07:40:14.817Z,11.32
2023-03-22T07:41:18.421Z,12.07
2023-03-22T07:42:20.706Z,11.07
2023-03-22T07:43:24.360Z,11.70
2023-03-22T07:44:27.226Z,11.63
2023-03-22T07:45:30.834Z,11.55
2023-03-22T07:46:33.513Z,11.10
2023-03-22T07:47:41.125Z,10.57
2023-03-22T07:48:44.457Z,11.75
2023-03-22T07:49:48.051Z,11.45
2023-03-22T07:50:54.826Z,11.18
2023-03-22T07:51:58.365Z,11.17
2023-03-22T07:53:01.070Z,11.68
2023-03-22T07:54:07.159Z,9.63
2023-03-22T07:55:13.457Z,9.40
2023-03-22T07:56:16.960Z,10.90
2023-03-22T07:57:19.751Z,11.25
2023-03-22T07:58:23.162Z,12.45
2023-03-22T07:59:26.118Z,12.45
2023-03-22T08:00:30.072Z,11.15
2023-03-22T08:01:33.895Z,12.45
2023-03-22T08:02:36.300Z,11.60
2023-03-22T08:03:39.760Z,11.18
2023-03-22T08:04:42.304Z,12.20
2023-03-22T08:05:45.769Z,12.43
2023-03-22T08:06:49.534Z,11.85
2023-03-22T08:07:54.424Z,12.30
2023-03-22T08:08:57.333Z,12.25
2023-03-22T08:10:01.218Z,12.23
2023-03-22T08:11:05.719Z,11.90
2023-03-22T08:12:09.178Z,12.73
2023-03-22T08:13:12.643Z,11.90
2023-03-22T08:14:15.955Z,11.82
2023-03-22T08:15:22.549Z,11.30
2023-03-22T08:16:25.210Z,11.77
2023-03-22T08:17:30.026Z,12.15
2023-03-22T08:18:33.377Z,11.88
2023-03-22T08:19:37.006Z,11.02
2023-03-22T08:20:39.760Z,11.90
2023-03-22T08:21:44.163Z,11.25
2023-03-22T08:22:46.911Z,11.95
2023-03-22T08:23:50.615Z,12.73
2023-03-22T08:24:53.488Z,12.27
2023-03-22T08:25:57.277Z,11.98
2023-03-22T08:27:02.715Z,11.95
2023-03-22T08:28:05.314Z,11.63
2023-03-22T08:29:08.892Z,11.35
2023-03-22T08:30:12.153Z,12.23
2023-03-22T08:31:17.489Z,11.95
2023-03-22T08:32:19.933Z,11.90
2023-03-22T08:33:23.952Z,11.10
2023-03-22T08:34:27.746Z,11.90
2023-03-22T08:35:30.650Z,11.50
2023-03-22T08:36:34.531Z,11.15
2023-03-22T08:37:37.085Z,11.57
2023-03-22T08:38:42.617Z,11.38
2023-03-22T08:39:45.609Z,12.48
2023-03-22T08:40:49.182Z,12.05
2023-03-22T08:41:51.450Z,11.88
2023-03-22T08:42:56.844Z,11.82
2023-03-22T08:44:00.587Z,11.85
2023-03-22T08:45:03.350Z,12.00
2023-03-22T08:46:07.213Z,12.48
2023-03-22T08:47:10.444Z,12.75
2023-03-22T08:48:13.736Z,12.18
2023-03-22T08:49:16.853Z,12.52
2023-03-22T08:50:20.759Z,12.30
2023-03-22T08:51:23.908Z,12.30
2023-03-22T08:52:27.361Z,12.25
2023-03-22T08:53:30.956Z,12.75
2023-03-22T08:54:37.164Z,12.65
2023-03-22T08:55:45.210Z,11.67
2023-03-22T08:56:49.617Z,12.65
2023-03-22T08:57:52.304Z,11.65
2023-03-22T08:58:58.169Z,12.38
2023-03-22T09:00:01.502Z,12.45
2023-03-22T09:01:05.129Z,12.60
2023-03-22T09:02:08.105Z,12.75
2023-03-22T09:03:11.761Z,13.07
2023-03-22T09:04:15.156Z,12.55
2023-03-22T09:05:18.843Z,13.27
2023-03-22T09:06:22.470Z,13.17
2023-03-22T09:07:25.204Z,13.40
2023-03-22T09:08:29.612Z,14.05
2023-03-22T09:09:33.207Z,13.70
2023-03-22T09:10:38.366Z,12.65
2023-03-22T09:11:43.026Z,13.13
2023-03-22T09:12:46.580Z,12.98
2023-03-22T09:13:51.450Z,13.63
2023-03-22T09:14:56.947Z,13.85
2023-03-22T09:16:00.496Z,14.35
2023-03-22T09:17:03.489Z,15.27
2023-03-22T09:18:07.182Z,13.73
2023-03-22T09:19:10.028Z,14.07
2023-03-22T09:20:13.914Z,14.20
2023-03-22T09:21:16.386Z,13.65
2023-03-22T09:22:20.087Z,15.20
2023-03-22T09:23:26.321Z,14.55
2023-03-22T09:24:29.205Z,14.40
2023-03-22T09:25:32.822Z,14.27
2023-03-22T09:26:37.430Z,13.57
2023-03-22T09:27:41.555Z,14.43
2023-03-22T09:28:46.018Z,14.20
2023-03-22T09:29:50.571Z,14.57
2023-03-22T09:30:55.569Z,14.38
2023-03-22T09:31:59.597Z,15.23
2023-03-22T09:33:02.764Z,13.85
2023-03-22T09:34:06.393Z,13.80
2023-03-22T09:35:10.324Z,14.40
2023-03-22T09:36:12.803Z,13.40
2023-03-22T09:37:16.433Z,13.45
2023-03-22T09:38:18.811Z,14.87
2023-03-22T09:39:22.861Z,13.15
2023-03-22T09:40:30.106Z,14.52
2023-03-22T09:41:38.640Z,14.30
2023-03-22T09:42:46.437Z,14.05
2023-03-22T09:43:54.614Z,14.70
2023-03-22T09:44:59.078Z,14.80
2023-03-22T09:46:06.656Z,13.73
2023-03-22T09:47:15.939Z,12.40
2023-03-22T09:48:23.135Z,12.30
2023-03-22T09:49:32.136Z,12.20
2023-03-22T09:50:45.143Z,13.25
2023-03-22T09:51:50.846Z,14.25
2023-03-22T09:52:55.388Z,14.40
2023-03-22T09:53:57.967Z,15.15
2023-03-22T09:55:01.590Z,15.40
2023-03-22T09:56:11.527Z,15.15
2023-03-22T09:57:26.313Z,16.80
2023-03-22T09:58:34.283Z,17.95
2023-03-22T09:59:44.554Z,16.35
2023-03-22T10:00:53.115Z,18.03
2023-03-22T10:02:01.905Z,17.20
2023-03-22T10:03:15.672Z,17.02
2023-03-22T10:04:31.301Z,14.90
2023-03-22T10:05:41.675Z,17.98
2023-03-22T10:06:48.945Z,16.13
2023-03-22T10:08:12.635Z,17.48
2023-03-22T10:09:20.580Z,16.95
2023-03-22T10:10:24.828Z,18.42
2023-03-22T10:11:41.673Z,15.70
2023-03-22T10:12:53.277Z,18.27
2023-03-22T10:17:14.921Z,17.05
2023-03-22T10:18:21.640Z,16.10
2023-03-22T10:19:30.904Z,15.18
2023-03-22T10:20:44.424Z,14.65
2023-03-22T10:21:50.350Z,14.40
2023-03-22T10:22:55.294Z,15.50
2023-03-22T10:24:02.359Z,15.05
2023-03-22T10:25:08.184Z,13.75
2023-03-22T10:26:21.317Z,14.50
2023-03-22T10:27:28.600Z,14.30
2023-03-22T10:28:41.630Z,14.05
2023-03-22T10:29:48.890Z,13.32
2023-03-22T10:30:57.252Z,12.80
2023-03-22T10:32:16.699Z,14.00
2023-03-22T10:33:26.389Z,12.30
2023-03-22T10:34:31.550Z,12.25
2023-03-22T10:35:37.327Z,12.45
2023-03-22T10:36:43.920Z,10.43
2023-03-22T10:37:50.030Z,10.90
2023-03-22T10:38:57.706Z,11.80
2023-03-22T10:40:08.192Z,12.40
2023-03-22T10:41:12.731Z,11.82
2023-03-22T10:42:20.879Z,12.73
2023-03-22T10:43:28.693Z,12.85
2023-03-22T10:44:37.099Z,13.48
2023-03-22T10:45:41.590Z,12.18
2023-03-22T10:46:47.992Z,13.70
2023-03-22T10:47:58.231Z,12.98
2023-03-22T10:49:04.024Z,11.53
2023-03-22T10:50:13.102Z,13.95
2023-03-22T10:51:26.138Z,11.68
2023-03-22T10:52:41.795Z,11.70
2023-03-22T10:53:48.732Z,12.20
2023-03-22T10:54:52.401Z,11.25
2023-03-22T10:55:56.147Z,10.63
2023-03-22T10:56:59.848Z,9.20
2023-03-22T10:58:12.959Z,9.80
2023-03-22T10:59:43.564Z,9.98
2023-03-22T11:00:49.293Z,8.73
2023-03-22T11:01:53.058Z,8.13
2023-03-22T11:03:02.311Z,8.73
2023-03-22T11:04:08.852Z,7.95
2023-03-22T11:05:23.183Z,6.63
2023-03-22T11:06:27.352Z,7.25
2023-03-22T11:07:36.684Z,9.00
2023-03-22T11:08:45.293Z,7.13
2023-03-22T11:09:49.889Z,6.43
2023-03-22T11:10:55.424Z,7.75
2023-03-22T11:12:01.091Z,7.80
2023-03-22T11:13:18.811Z,6.18
2023-03-22T11:14:31.273Z,6.85
2023-03-22T11:15:36.539Z,6.50
2023-03-22T11:16:49.139Z,6.03
2023-03-22T11:17:52.453Z,6.32
2023-03-22T11:18:59.666Z,6.15
2023-03-22T11:20:07.803Z,7.13
2023-03-22T11:21:13.833Z,6.90
2023-03-22T11:22:27.504Z,6.15
2023-03-22T11:23:34.687Z,7.30
2023-03-22T11:24:38.211Z,6.43
2023-03-22T11:25:47.286Z,7.15
2023-03-22T11:27:04.538Z,6.30
2023-03-22T11:28:10.569Z,7.03
2023-03-22T11:29:18.450Z,7.47
2023-03-22T11:30:23.102Z,7.50
2023-03-22T11:31:26.607Z,6.70
2023-03-22T11:32:33.075Z,7.88
2023-03-22T11:33:36.880Z,6.63
2023-03-22T11:34:47.639Z,7.70
2023-03-22T11:35:56.819Z,7.05
2023-03-22T11:37:02.046Z,6.10
2023-03-22T11:38:07.732Z,6.38
2023-03-22T11:39:12.707Z,6.45
2023-03-22T11:40:19.682Z,7.68
2023-03-22T11:41:24.723Z,7.13
2023-03-22T11:42:28.516Z,7.45
2023-03-22T11:43:36.604Z,6.47
2023-03-22T11:44:41.590Z,7.97
2023-03-22T11:45:48.547Z,8.10
2023-03-22T11:46:57.993Z,8.52
2023-03-22T11:48:03.793Z,6.65
2023-03-22T11:49:09.721Z,6.80
2023-03-22T11:50:29.679Z,7.30
2023-03-22T11:51:36.322Z,7.40
2023-03-22T11:52:39.177Z,7.53
2023-03-22T11:53:46.610Z,7.47
2023-03-22T11:54:50.429Z,6.88
2023-03-22T11:55:56.474Z,6.93
2023-03-22T11:57:05.980Z,7.90
2023-03-22T11:58:26.340Z,6.72
2023-03-22T11:59:31.594Z,6.30
2023-03-22T12:00:37.680Z,6.30
2023-03-22T12:01:45.846Z,7.88
2023-03-22T12:02:53.048Z,7.95
2023-03-22T12:03:57.495Z,6.32
2023-03-22T12:05:07.700Z,5.43
2023-03-22T12:06:20.195Z,7.45
2023-03-22T12:07:24.804Z,6.63
2023-03-22T12:08:41.024Z,5.90
2023-03-22T12:09:51.849Z,7.50
2023-03-22T12:11:03.208Z,7.40
2023-03-22T12:12:13.487Z,8.18
2023-03-22T12:13:22.849Z,7.18
2023-03-22T12:14:29.195Z,7.75
2023-03-22T12:15:36.654Z,8.02
2023-03-22T12:16:47.231Z,7.47
2023-03-22T12:17:56.197Z,7.18
2023-03-22T12:19:08.088Z,7.47
2023-03-22T12:20:23.128Z,7.50
2023-03-22T12:21:28.730Z,7.05
2023-03-22T12:22:35.189Z,6.78
2023-03-22T12:23:40.022Z,8.20
2023-03-22T12:24:42.990Z,6.38
2023-03-22T12:25:54.994Z,6.63
2023-03-22T12:27:06.274Z,7.85
2023-03-22T12:28:16.320Z,5.80
2023-03-22T12:29:19.955Z,5.60
2023-03-22T12:30:26.758Z,5.65
2023-03-22T12:31:33.077Z,6.67
2023-03-22T12:32:43.003Z,5.65
2023-03-22T12:33:49.051Z,6.68
2023-03-22T12:35:01.366Z,5.50
2023-03-22T12:36:18.692Z,5.88
2023-03-22T12:37:30.113Z,4.15
2023-03-22T12:38:41.684Z,6.38
2023-03-22T12:39:49.178Z,5.18
2023-03-22T12:40:55.743Z,4.70
2023-03-22T12:42:04.007Z,3.92
2023-03-22T12:43:15.074Z,4.93
2023-03-22T12:44:19.144Z,4.10
2023-03-22T12:45:26.389Z,3.78
2023-03-22T12:46:34.121Z,4.35
2023-03-22T12:47:42.001Z,4.60
2023-03-22T12:48:50.525Z,3.97
2023-03-22T12:49:59.167Z,3.75
2023-03-22T12:51:06.718Z,3.83
2023-03-22T12:52:14.912Z,4.10
2023-03-22T12:53:23.647Z,3.83
2023-03-22T12:54:28.097Z,4.27
2023-03-22T12:55:35.029Z,3.80
2023-03-22T12:56:41.251Z,21.55
2023-03-22T12:57:43.897Z,7.38
2023-03-22T12:58:53.130Z,9.05
2023-03-22T12:59:58.423Z,5.57
2023-03-22T13:01:15.971Z,5.28
2023-03-22T13:02:25.359Z,4.72
2023-03-22T13:03:32.680Z,4.57
2023-03-22T13:04:52.243Z,4.03
2023-03-22T13:06:05.439Z,3.37
2023-03-22T13:07:16.303Z,3.58
2023-03-22T13:08:23.835Z,3.78
2023-03-22T13:09:41.871Z,3.55
2023-03-22T13:11:01.669Z,3.15
2023-03-22T13:12:29.407Z,3.75
2023-03-22T13:31:09.450Z,2.60
2023-03-22T13:32:30.906Z,2.80
2023-03-22T13:33:38.970Z,2.92
2023-03-22T13:34:47.918Z,2.83
2023-03-22T13:35:55.279Z,3.58
2023-03-22T13:36:59.449Z,3.78
2023-03-22T13:38:03.810Z,3.72
2023-03-22T13:39:12.539Z,2.83
2023-03-22T13:40:29.938Z,3.20
2023-03-22T13:41:35.776Z,3.95
2023-03-22T13:42:43.174Z,3.78
2023-03-22T13:43:50.453Z,3.97
2023-03-22T13:44:58.663Z,3.45
2023-03-22T13:46:12.442Z,3.33
2023-03-22T13:47:36.936Z,3.95
2023-03-22T13:48:55.189Z,2.92
2023-03-22T13:50:06.147Z,3.30
2023-03-22T13:51:15.172Z,3.20
2023-03-22T13:52:29.303Z,3.70
2023-03-22T13:53:34.993Z,3.22
2023-03-22T13:54:45.870Z,3.60
2023-03-22T13:56:03.430Z,3.47
2023-03-22T13:57:17.830Z,3.75
2023-03-22T13:58:38.616Z,3.08
2023-03-22T14:00:12.294Z,2.95
2023-03-22T14:01:22.216Z,2.60
2023-03-22T14:02:29.334Z,3.20
2023-03-22T14:03:39.231Z,2.95
2023-03-22T14:04:45.618Z,2.70
2023-03-22T14:05:56.741Z,3.10
2023-03-22T14:07:07.135Z,3.00
2023-03-22T14:08:21.923Z,3.97
2023-03-22T14:09:32.091Z,3.03
2023-03-22T14:10:40.716Z,4.20
2023-03-22T14:11:48.843Z,4.03
2023-03-22T14:12:54.573Z,3.30
2023-03-22T14:14:04.503Z,3.28
2023-03-22T14:15:16.197Z,3.30
2023-03-22T14:16:30.487Z,3.30
2023-03-22T14:17:40.523Z,4.13
2023-03-22T14:18:47.627Z,4.07
2023-03-22T14:19:52.979Z,3.92
2023-03-22T14:20:59.804Z,3.22
